createdAt,value
2019-04-25T10:39:29.320Z,19.47
2019-04-25T10:40:29.201Z,19.81
2019-04-25T10:41:29.188Z,19.88
2019-04-25T10:42:29.177Z,20.39
2019-04-25T10:43:29.165Z,20.07
2019-04-25T10:44:29.152Z,20.22
2019-04-25T10:45:29.142Z,20.81
2019-04-25T10:46:29.134Z,20.82
2019-04-25T10:47:29.122Z,19.84
2019-04-25T10:48:29.109Z,19.77
2019-04-25T10:49:29.100Z,19.07
2019-04-25T10:50:29.095Z,19.14
2019-04-25T10:51:29.079Z,19.79
2019-04-25T10:52:29.067Z,19.96
2019-04-25T10:53:29.057Z,19.79
2019-04-25T10:54:29.045Z,20.13
2019-04-25T10:55:29.036Z,19.96
2019-04-25T10:56:29.025Z,20.24
2019-04-25T10:57:29.014Z,20.04
2019-04-25T10:58:29.004Z,20.04
2019-04-25T10:59:28.994Z,20.34
2019-04-25T11:00:28.983Z,20.19
2019-04-25T11:01:28.976Z,20.50
2019-04-25T11:02:28.962Z,20.63
2019-04-25T11:03:28.954Z,21.05
2019-04-25T11:04:28.942Z,21.06
2019-04-25T11:05:28.935Z,20.96
2019-04-25T11:06:28.925Z,20.90
2019-04-25T11:07:28.916Z,20.51
2019-04-25T11:08:28.922Z,20.70
2019-04-25T11:09:28.901Z,20.97
2019-04-25T11:10:28.888Z,21.43
2019-04-25T11:11:28.881Z,20.59
2019-04-25T11:12:28.872Z,20.52
2019-04-25T11:13:28.863Z,20.81
2019-04-25T11:14:28.855Z,20.70
2019-04-25T11:15:28.846Z,20.92
2019-04-25T11:16:28.836Z,20.99
2019-04-25T11:17:28.830Z,21.20
2019-04-25T11:18:28.820Z,20.84
2019-04-25T11:19:28.816Z,20.96
2019-04-25T11:20:28.806Z,20.80
2019-04-25T11:21:28.797Z,20.77
2019-04-25T11:22:28.788Z,20.80
2019-04-25T11:23:28.780Z,20.87
2019-04-25T11:24:28.772Z,20.78
2019-04-25T11:25:28.765Z,20.43
2019-04-25T11:26:28.761Z,20.37
2019-04-25T11:27:28.748Z,20.32
2019-04-25T11:28:28.743Z,20.00
2019-04-25T11:29:28.731Z,20.34
2019-04-25T11:30:28.721Z,20.36
2019-04-25T11:31:28.718Z,20.37
2019-04-25T11:32:28.707Z,20.39
2019-04-25T11:33:28.694Z,20.29
2019-04-25T11:34:28.687Z,20.93
2019-04-25T11:35:28.679Z,20.70
2019-04-25T11:36:28.671Z,20.92
2019-04-25T11:37:28.666Z,20.80
2019-04-25T11:38:30.818Z,20.40
2019-04-25T11:39:28.643Z,20.47
2019-04-25T11:40:28.635Z,20.74
2019-04-25T11:41:28.626Z,20.77
2019-04-25T11:42:28.619Z,20.75
2019-04-25T11:43:28.609Z,20.69
2019-04-25T11:44:28.600Z,20.52
2019-04-25T11:45:28.594Z,21.00
2019-04-25T11:46:28.582Z,21.35
2019-04-25T11:47:28.573Z,21.24
2019-04-25T11:48:28.563Z,20.82
2019-04-25T11:49:28.556Z,20.93
2019-04-25T11:50:28.547Z,21.17
2019-04-25T11:51:28.537Z,21.51
2019-04-25T11:52:30.309Z,21.80
2019-04-25T11:53:28.520Z,22.14
2019-04-25T11:54:28.512Z,22.04
2019-04-25T11:55:28.505Z,22.10
2019-04-25T11:56:28.496Z,22.02
2019-04-25T11:57:28.488Z,21.92
2019-04-25T11:58:28.481Z,22.02
2019-04-25T11:59:28.473Z,21.37
2019-04-25T12:00:28.465Z,21.50
2019-04-25T12:01:28.458Z,21.70
2019-04-25T12:02:28.451Z,21.72
2019-04-25T12:03:28.443Z,21.20
2019-04-25T12:04:28.435Z,21.15
2019-04-25T12:05:28.426Z,20.81
2019-04-25T12:06:28.419Z,20.90
2019-04-25T12:07:28.409Z,20.84
2019-04-25T12:08:28.400Z,20.82
2019-04-25T12:09:28.390Z,20.92
2019-04-25T12:10:28.381Z,20.80
2019-04-25T12:11:28.396Z,20.84
2019-04-25T12:12:28.363Z,20.48
2019-04-25T12:13:28.353Z,20.51
2019-04-25T12:14:28.343Z,20.50
2019-04-25T12:15:28.333Z,20.36
2019-04-25T12:16:28.321Z,20.37
2019-04-25T12:17:28.311Z,20.11
2019-04-25T12:18:28.301Z,20.16
2019-04-25T12:19:35.865Z,19.82
2019-04-25T12:20:28.291Z,19.89
2019-04-25T12:21:28.266Z,19.62
2019-04-25T12:22:28.256Z,19.49
2019-04-25T12:23:28.242Z,19.55
2019-04-25T12:24:28.236Z,19.84
2019-04-25T12:25:28.223Z,19.96
2019-04-25T12:26:28.205Z,20.00
2019-04-25T12:27:28.193Z,20.13
2019-04-25T12:28:28.179Z,20.51
2019-04-25T12:29:28.166Z,20.52
2019-04-25T12:30:37.142Z,20.81
2019-04-25T12:31:28.143Z,20.90
2019-04-25T12:32:28.131Z,20.97
2019-04-25T12:33:28.117Z,21.15
2019-04-25T12:34:28.105Z,21.07
2019-04-25T12:35:28.096Z,21.14
2019-04-25T12:36:28.086Z,20.81
2019-04-25T12:37:28.069Z,20.88
2019-04-25T12:38:28.059Z,20.93
2019-04-25T12:39:28.048Z,21.21
2019-04-25T12:40:28.034Z,21.45
2019-04-25T12:41:28.023Z,21.12
2019-04-25T12:42:28.011Z,20.59
2019-04-25T12:43:28.001Z,20.50
2019-04-25T12:44:27.986Z,20.39
2019-04-25T12:45:27.974Z,20.07
2019-04-25T12:46:27.962Z,20.03
2019-04-25T12:47:27.950Z,20.24
2019-04-25T12:48:27.935Z,20.40
2019-04-25T12:49:27.925Z,20.21
2019-04-25T12:50:27.912Z,19.91
2019-04-25T12:51:27.898Z,19.84
2019-04-25T12:52:27.885Z,19.73
2019-04-25T12:53:27.871Z,19.85
2019-04-25T12:54:27.858Z,19.79
2019-04-25T12:55:27.849Z,19.81
2019-04-25T12:56:27.831Z,19.95
2019-04-25T12:57:27.815Z,19.95
2019-04-25T12:58:27.803Z,19.86
2019-04-25T12:59:27.789Z,19.91
2019-04-25T13:00:27.774Z,19.73
2019-04-25T13:01:27.765Z,19.85
2019-04-25T13:02:27.747Z,20.36
2019-04-25T13:03:27.733Z,20.63
2019-04-25T13:04:27.719Z,20.65
2019-04-25T13:05:27.705Z,20.50
2019-04-25T13:06:27.693Z,20.31
2019-04-25T13:07:27.683Z,20.26
2019-04-25T13:08:27.672Z,20.55
2019-04-25T13:09:27.650Z,21.17
2019-04-25T13:10:27.644Z,21.07
2019-04-25T13:11:27.624Z,20.90
2019-04-25T13:12:27.609Z,20.93
2019-04-25T13:13:27.596Z,20.67
2019-04-25T13:14:28.604Z,20.59
2019-04-25T13:15:28.368Z,20.81
2019-04-25T13:16:27.559Z,20.50
2019-04-25T13:17:27.543Z,20.52
2019-04-25T13:18:27.529Z,20.34
2019-04-25T13:19:27.515Z,20.16
2019-04-25T13:20:27.501Z,20.52
2019-04-25T13:21:27.487Z,20.37
2019-04-25T13:22:27.474Z,20.56
2019-04-25T13:23:27.459Z,20.81
2019-04-25T13:24:27.445Z,20.62
2019-04-25T13:25:27.433Z,20.51
2019-04-25T13:26:27.418Z,20.58
2019-04-25T13:27:27.404Z,20.66
2019-04-25T13:28:27.390Z,20.82
2019-04-25T13:29:27.374Z,20.90
2019-04-25T13:30:27.364Z,21.30
2019-04-25T13:31:27.347Z,21.46
2019-04-25T13:32:27.333Z,21.35
2019-04-25T13:33:27.319Z,21.18
2019-04-25T13:34:36.091Z,21.06
2019-04-25T13:35:27.297Z,21.21
2019-04-25T13:36:27.277Z,21.05
2019-04-25T13:37:27.264Z,21.14
2019-04-25T13:38:27.252Z,21.03
2019-04-25T13:39:27.237Z,20.82
2019-04-25T13:40:27.224Z,20.93
2019-04-25T13:41:27.210Z,20.85
2019-04-25T13:42:27.195Z,20.92
2019-04-25T13:43:27.182Z,20.85
2019-04-25T13:44:27.168Z,21.20
2019-04-25T13:45:27.155Z,21.27
2019-04-25T13:46:27.687Z,21.25
2019-04-25T13:47:29.181Z,21.27
2019-04-25T13:48:27.996Z,21.03
2019-04-25T13:49:27.305Z,21.15
2019-04-25T13:50:27.617Z,21.12
2019-04-25T13:51:27.072Z,21.40
2019-04-25T13:52:27.058Z,21.33
2019-04-25T13:53:27.394Z,21.54
2019-04-25T13:54:27.033Z,21.25
2019-04-25T13:55:27.019Z,21.27
2019-04-25T13:56:27.842Z,21.32
2019-04-25T13:57:27.853Z,21.36
2019-04-25T13:58:29.512Z,21.22
2019-04-25T13:59:26.982Z,21.17
2019-04-25T14:00:27.755Z,21.11
2019-04-25T14:01:27.610Z,21.21
2019-04-25T14:02:26.925Z,21.32
2019-04-25T14:03:27.307Z,21.03
2019-04-25T14:04:27.987Z,21.05
2019-04-25T14:05:26.885Z,21.14
2019-04-25T14:06:26.870Z,21.17
2019-04-25T14:07:27.333Z,21.20
2019-04-25T14:08:27.005Z,21.03
2019-04-25T14:09:27.155Z,20.82
2019-04-25T14:10:26.825Z,20.95
2019-04-25T14:11:26.804Z,21.17
2019-04-25T14:12:28.743Z,21.22
2019-04-25T14:13:27.522Z,21.14
2019-04-25T14:14:26.834Z,20.96
2019-04-25T14:15:27.492Z,21.06
2019-04-25T14:16:26.847Z,20.92
2019-04-25T14:17:26.724Z,20.84
2019-04-25T14:18:26.710Z,20.44
2019-04-25T14:19:26.698Z,20.51
2019-04-25T14:20:26.699Z,20.47
2019-04-25T14:21:27.306Z,20.39
2019-04-25T14:22:27.530Z,20.43
2019-04-25T14:23:27.415Z,20.25
2019-04-25T14:24:30.525Z,20.21
2019-04-25T14:25:27.640Z,20.52
2019-04-25T14:26:27.056Z,20.51
2019-04-25T14:27:26.587Z,20.59
2019-04-25T14:28:29.349Z,20.50
2019-04-25T14:29:26.558Z,20.56
2019-04-25T14:30:26.546Z,20.29
2019-04-25T14:31:41.334Z,20.37
2019-04-25T14:32:28.708Z,20.25
2019-04-25T14:33:27.447Z,20.19
2019-04-25T14:34:26.619Z,20.16
2019-04-25T14:35:26.636Z,20.28
2019-04-25T14:36:28.353Z,20.31
2019-04-25T14:37:29.808Z,20.51
2019-04-25T14:38:26.646Z,20.52
2019-04-25T14:39:27.410Z,20.22
2019-04-25T14:40:27.030Z,20.40
2019-04-25T14:41:26.393Z,20.43
2019-04-25T14:42:26.506Z,20.19
2019-04-25T14:43:26.364Z,20.24
2019-04-25T14:44:26.350Z,20.34
2019-04-25T14:45:26.654Z,20.48
2019-04-25T14:46:26.576Z,20.56
2019-04-25T14:47:26.308Z,20.25
2019-04-25T14:48:27.190Z,20.60
2019-04-25T14:49:26.385Z,20.44
2019-04-25T14:50:26.994Z,20.14
2019-04-25T14:51:26.255Z,20.04
2019-04-25T14:52:26.235Z,19.86
2019-04-25T14:53:26.221Z,19.76
2019-04-25T14:54:26.401Z,19.91
2019-04-25T14:55:26.193Z,19.85
2019-04-25T14:56:26.179Z,19.41
2019-04-25T14:57:26.189Z,19.30
2019-04-25T14:58:26.205Z,19.27
2019-04-25T14:59:26.476Z,19.18
2019-04-25T15:00:26.176Z,19.00
2019-04-25T15:01:26.126Z,19.16
2019-04-25T15:02:26.090Z,19.09
2019-04-25T15:03:26.104Z,19.16
2019-04-25T15:04:26.063Z,19.11
2019-04-25T15:05:26.044Z,18.84
2019-04-25T15:06:26.029Z,18.95
2019-04-25T15:07:26.013Z,18.71
2019-04-25T15:08:26.602Z,18.78
2019-04-25T15:09:26.810Z,18.65
2019-04-25T15:10:26.551Z,18.65
2019-04-25T15:11:26.941Z,18.84
2019-04-25T15:12:26.863Z,18.86
2019-04-25T15:13:25.919Z,18.93
2019-04-25T15:14:26.897Z,19.12
2019-04-25T15:15:26.582Z,19.09
2019-04-25T15:16:25.872Z,19.24
2019-04-25T15:17:26.446Z,19.18
2019-04-25T15:18:26.704Z,19.07
2019-04-25T15:19:25.826Z,19.07
2019-04-25T15:20:26.156Z,18.84
2019-04-25T15:21:26.258Z,18.99
2019-04-25T15:22:25.777Z,18.95
2019-04-25T15:23:25.762Z,18.70
2019-04-25T15:24:25.748Z,18.66
2019-04-25T15:25:26.184Z,18.68
2019-04-25T15:26:25.668Z,18.84
2019-04-25T15:27:26.450Z,18.81
2019-04-25T15:28:25.637Z,19.07
2019-04-25T15:29:26.503Z,18.93
2019-04-25T15:30:29.003Z,18.93
2019-04-25T15:31:25.707Z,18.84
2019-04-25T15:32:26.168Z,18.55
2019-04-25T15:33:26.443Z,18.45
2019-04-25T15:34:25.987Z,18.52
2019-04-25T15:35:25.851Z,18.41
2019-04-25T15:36:25.560Z,18.62
2019-04-25T15:37:26.457Z,18.52
2019-04-25T15:38:25.528Z,18.53
2019-04-25T15:39:26.177Z,18.62
2019-04-25T15:40:26.331Z,18.52
2019-04-25T15:41:26.219Z,18.52
2019-04-25T15:42:26.227Z,18.25
2019-04-25T15:43:26.281Z,18.16
2019-04-25T15:44:25.433Z,18.11
2019-04-25T15:45:26.362Z,18.18
2019-04-25T15:46:26.093Z,18.29
2019-04-25T15:47:26.413Z,18.10
2019-04-25T15:48:26.163Z,18.18
2019-04-25T15:49:25.424Z,18.11
2019-04-25T15:50:26.327Z,18.16
2019-04-25T15:51:25.554Z,18.38
2019-04-25T15:52:26.658Z,18.26
2019-04-25T15:53:25.291Z,18.25
2019-04-25T15:54:26.294Z,18.33
2019-04-25T15:55:26.234Z,18.35
2019-04-25T15:56:25.241Z,18.33
2019-04-25T15:57:25.247Z,18.47
2019-04-25T15:58:25.347Z,18.25
2019-04-25T15:59:25.195Z,18.31
2019-04-25T16:00:25.179Z,18.28
2019-04-25T16:01:26.363Z,18.34
2019-04-25T16:02:25.146Z,18.37
2019-04-25T16:03:25.143Z,18.11
2019-04-25T16:04:25.705Z,18.33
2019-04-25T16:05:25.651Z,18.37
2019-04-25T16:06:25.571Z,18.47
2019-04-25T16:07:25.066Z,18.63
2019-04-25T16:08:25.048Z,18.59
2019-04-25T16:09:25.039Z,18.50
2019-04-25T16:10:25.018Z,18.59
2019-04-25T16:11:26.516Z,18.71
2019-04-25T16:12:24.984Z,18.70
2019-04-25T16:13:25.896Z,18.78
2019-04-25T16:14:26.354Z,18.65
2019-04-25T16:15:24.937Z,18.63
2019-04-25T16:16:24.920Z,18.58
2019-04-25T16:17:24.905Z,18.45
2019-04-25T16:18:24.890Z,18.18
2019-04-25T16:19:24.875Z,18.18
2019-04-25T16:20:24.856Z,18.55
2019-04-25T16:21:24.845Z,18.55
2019-04-25T16:22:24.827Z,18.31
2019-04-25T16:23:24.813Z,18.19
2019-04-25T16:24:24.793Z,18.28
2019-04-25T16:25:24.777Z,18.56
2019-04-25T16:26:24.762Z,18.47
2019-04-25T16:27:24.747Z,18.49
2019-04-25T16:28:24.731Z,18.04
2019-04-25T16:29:24.716Z,18.49
2019-04-25T16:30:24.710Z,18.45
2019-04-25T16:31:24.681Z,18.65
2019-04-25T16:32:24.666Z,18.56
2019-04-25T16:33:24.649Z,18.49
2019-04-25T16:34:24.634Z,18.55
2019-04-25T16:35:24.618Z,18.53
2019-04-25T16:36:24.603Z,18.50
2019-04-25T16:37:24.587Z,18.66
2019-04-25T16:38:24.570Z,18.66
2019-04-25T16:39:24.555Z,18.77
2019-04-25T16:40:24.537Z,18.65
2019-04-25T16:41:24.521Z,18.56
2019-04-25T16:42:24.506Z,18.56
2019-04-25T16:43:24.491Z,18.71
2019-04-25T16:44:24.473Z,18.63
2019-04-25T16:45:24.458Z,18.56
2019-04-25T16:46:24.445Z,18.63
2019-04-25T16:47:24.428Z,18.63
2019-04-25T16:48:24.411Z,18.45
2019-04-25T16:49:24.399Z,18.44
2019-04-25T16:50:24.378Z,18.52
2019-04-25T16:51:24.363Z,18.60
2019-04-25T16:52:24.347Z,18.45
2019-04-25T16:53:24.330Z,18.55
2019-04-25T16:54:24.314Z,18.56
2019-04-25T16:55:24.299Z,18.77
2019-04-25T16:56:24.282Z,18.47
2019-04-25T16:57:24.267Z,18.50
2019-04-25T16:58:24.267Z,18.33
2019-04-25T16:59:24.234Z,18.34
2019-04-25T17:00:24.219Z,18.19
2019-04-25T17:01:24.203Z,17.95
2019-04-25T17:02:32.843Z,18.01
2019-04-25T17:03:24.171Z,18.05
2019-04-25T17:04:24.154Z,18.11
2019-04-25T17:05:24.137Z,18.04
2019-04-25T17:06:24.121Z,18.11
2019-04-25T17:07:24.106Z,18.05
2019-04-25T17:08:24.088Z,18.16
2019-04-25T17:09:24.073Z,17.90
2019-04-25T17:10:24.057Z,17.83
2019-04-25T17:11:24.040Z,17.76
2019-04-25T17:12:24.030Z,17.72
2019-04-25T17:13:24.007Z,17.65
2019-04-25T17:14:23.990Z,17.89
2019-04-25T17:15:23.975Z,17.74
2019-04-25T17:16:23.957Z,17.64
2019-04-25T17:17:23.945Z,17.48
2019-04-25T17:18:23.932Z,17.49
2019-04-25T17:19:23.910Z,17.46
2019-04-25T17:20:23.891Z,17.30
2019-04-25T17:21:23.876Z,17.44
2019-04-25T17:22:23.859Z,17.60
2019-04-25T17:23:23.843Z,17.51
2019-04-25T17:24:23.825Z,17.38
2019-04-25T17:25:23.808Z,17.24
2019-04-25T17:26:23.791Z,17.12
2019-04-25T17:27:23.775Z,17.16
2019-04-25T17:28:23.757Z,17.16
2019-04-25T17:29:23.742Z,17.11
2019-04-25T17:30:23.726Z,17.24
2019-04-25T17:31:23.707Z,17.06
2019-04-25T17:32:23.691Z,16.91
2019-04-25T17:33:23.680Z,16.89
2019-04-25T17:34:23.658Z,16.89
2019-04-25T17:35:23.642Z,16.94
2019-04-25T17:36:23.623Z,16.83
2019-04-25T17:37:23.605Z,16.87
2019-04-25T17:38:23.588Z,16.69
2019-04-25T17:39:23.617Z,17.08
2019-04-25T17:40:23.558Z,16.87
2019-04-25T17:41:23.536Z,16.83
2019-04-25T17:42:23.521Z,16.86
2019-04-25T17:43:23.504Z,16.78
2019-04-25T17:44:23.486Z,16.76
2019-04-25T17:45:23.471Z,16.72
2019-04-25T17:46:23.455Z,16.86
2019-04-25T17:47:23.437Z,16.86
2019-04-25T17:48:23.418Z,16.89
2019-04-25T17:49:23.398Z,16.84
2019-04-25T17:50:23.382Z,16.83
2019-04-25T17:51:23.365Z,16.69
2019-04-25T17:52:23.347Z,16.66
2019-04-25T17:53:23.330Z,16.94
2019-04-25T17:54:23.312Z,16.74
2019-04-25T17:55:23.295Z,16.68
2019-04-25T17:56:23.276Z,16.87
2019-04-25T17:57:23.266Z,16.49
2019-04-25T17:58:23.241Z,16.41
2019-04-25T17:59:23.226Z,16.53
2019-04-25T18:00:23.208Z,16.65
2019-04-25T18:01:23.190Z,16.75
2019-04-25T18:02:23.173Z,16.90
2019-04-25T18:03:23.155Z,16.74
2019-04-25T18:04:23.143Z,16.56
2019-04-25T18:05:23.122Z,16.90
2019-04-25T18:06:23.104Z,16.90
2019-04-25T18:07:23.085Z,16.78
2019-04-25T18:08:23.857Z,16.81
2019-04-25T18:09:23.050Z,16.89
2019-04-25T18:10:23.034Z,16.89
2019-04-25T18:11:23.016Z,16.68
2019-04-25T18:12:22.996Z,16.60
2019-04-25T18:13:22.979Z,16.58
2019-04-25T18:14:22.963Z,16.36
2019-04-25T18:15:22.944Z,16.36
2019-04-25T18:16:22.926Z,16.50
2019-04-25T18:17:22.910Z,16.58
2019-04-25T18:18:22.893Z,16.21
2019-04-25T18:19:25.066Z,16.10
2019-04-25T18:20:22.856Z,16.16
2019-04-25T18:21:22.837Z,16.09
2019-04-25T18:22:22.821Z,16.01
2019-04-25T18:23:22.802Z,15.95
2019-04-25T18:24:22.785Z,15.76
2019-04-25T18:25:22.767Z,15.77
2019-04-25T18:26:22.749Z,15.70
2019-04-25T18:27:22.735Z,15.79
2019-04-25T18:28:22.712Z,15.77
2019-04-25T18:29:22.696Z,15.72
2019-04-25T18:30:22.677Z,15.61
2019-04-25T18:31:22.665Z,15.61
2019-04-25T18:32:22.640Z,15.58
2019-04-25T18:33:22.625Z,15.68
2019-04-25T18:34:22.604Z,15.58
2019-04-25T18:35:22.586Z,15.55
2019-04-25T18:36:22.567Z,15.39
2019-04-25T18:37:22.700Z,15.51
2019-04-25T18:38:22.531Z,15.43
2019-04-25T18:39:22.555Z,15.33
2019-04-25T18:40:22.493Z,15.37
2019-04-25T18:41:22.476Z,15.47
2019-04-25T18:42:22.457Z,15.31
2019-04-25T18:43:22.440Z,15.25
2019-04-25T18:44:22.419Z,15.14
2019-04-25T18:45:22.402Z,15.06
2019-04-25T18:46:22.385Z,15.04
2019-04-25T18:47:22.366Z,15.03
2019-04-25T18:48:22.347Z,14.96
2019-04-25T18:49:22.331Z,15.02
2019-04-25T18:50:22.308Z,15.03
2019-04-25T18:51:22.290Z,15.18
2019-04-25T18:52:22.270Z,15.04
2019-04-25T18:53:22.256Z,14.97
2019-04-25T18:54:22.233Z,14.82
2019-04-25T18:55:22.216Z,15.06
2019-04-25T18:56:22.199Z,15.14
2019-04-25T18:57:22.183Z,14.88
2019-04-25T18:58:22.158Z,14.79
2019-04-25T18:59:22.139Z,14.72
2019-04-25T19:00:22.122Z,14.79
2019-04-25T19:01:22.102Z,14.65
2019-04-25T19:02:22.083Z,14.88
2019-04-25T19:03:24.519Z,14.81
2019-04-25T19:04:22.046Z,14.86
2019-04-25T19:05:22.025Z,14.65
2019-04-25T19:06:22.009Z,14.59
2019-04-25T19:07:22.914Z,14.81
2019-04-25T19:08:21.969Z,14.82
2019-04-25T19:09:21.951Z,14.85
2019-04-25T19:10:21.932Z,14.82
2019-04-25T19:11:21.912Z,14.77
2019-04-25T19:12:21.893Z,14.60
2019-04-25T19:13:21.874Z,14.62
2019-04-25T19:14:21.855Z,14.69
2019-04-25T19:15:21.835Z,14.66
2019-04-25T19:16:21.817Z,14.68
2019-04-25T19:17:21.798Z,14.51
2019-04-25T19:18:21.781Z,14.44
2019-04-25T19:19:21.759Z,14.45
2019-04-25T19:20:21.740Z,14.22
2019-04-25T19:21:21.722Z,14.08
2019-04-25T19:22:21.703Z,14.12
2019-04-25T19:23:21.745Z,14.00
2019-04-25T19:24:21.663Z,14.15
2019-04-25T19:25:21.644Z,14.15
2019-04-25T19:26:21.625Z,14.20
2019-04-25T19:27:23.832Z,14.11
2019-04-25T19:28:21.588Z,14.15
2019-04-25T19:29:21.566Z,14.12
2019-04-25T19:30:21.547Z,14.20
2019-04-25T19:31:21.527Z,14.23
2019-04-25T19:32:21.507Z,14.35
2019-04-25T19:33:21.490Z,14.26
2019-04-25T19:34:21.469Z,14.20
2019-04-25T19:35:21.454Z,14.25
2019-04-25T19:36:21.430Z,14.25
2019-04-25T19:37:21.416Z,14.33
2019-04-25T19:38:21.391Z,14.28
2019-04-25T19:39:21.373Z,14.33
2019-04-25T19:40:21.353Z,13.97
2019-04-25T19:41:21.332Z,14.11
2019-04-25T19:42:21.313Z,13.90
2019-04-25T19:43:21.295Z,13.71
2019-04-25T19:44:21.274Z,13.72
2019-04-25T19:45:21.253Z,-40.00
2019-04-25T19:46:21.240Z,-40.00
2019-04-25T19:47:21.216Z,-40.00
2019-04-25T19:48:21.195Z,-40.00
2019-04-25T19:49:21.175Z,-40.00
2019-04-25T19:50:21.155Z,-40.00
2019-04-25T19:51:21.136Z,-40.00
2019-04-25T19:52:21.116Z,-40.00
2019-04-25T19:53:21.099Z,-40.00
2019-04-25T19:54:21.077Z,-40.00
2019-04-25T19:55:21.057Z,-40.00
2019-04-25T19:56:21.037Z,-40.00
2019-04-25T19:57:21.019Z,-40.00
2019-04-25T19:58:20.996Z,-40.00
2019-04-25T19:59:20.977Z,-40.00
2019-04-25T20:00:20.955Z,-40.00
2019-04-25T20:01:20.939Z,-40.00
2019-04-25T20:02:20.916Z,-40.00
2019-04-25T20:03:20.897Z,-40.00
2019-04-25T20:04:20.882Z,-40.00
2019-04-25T20:05:20.855Z,-40.00
2019-04-25T20:06:20.835Z,12.62
2019-04-25T20:07:20.817Z,-40.00
2019-04-25T20:08:28.523Z,-40.00
2019-04-25T20:09:20.774Z,-40.00
2019-04-25T20:10:20.754Z,-40.00
2019-04-25T20:11:20.734Z,-40.00
2019-04-25T20:12:20.711Z,13.68
2019-04-25T20:13:20.692Z,13.16
2019-04-25T20:14:20.669Z,14.18
2019-04-25T20:15:20.650Z,-40.00
2019-04-25T20:16:20.630Z,13.72
2019-04-25T20:17:20.609Z,-40.00
2019-04-25T20:18:20.588Z,-40.00
2019-04-25T20:19:20.567Z,-40.00
2019-04-25T20:20:20.547Z,-40.00
2019-04-25T20:21:20.526Z,-40.00
2019-04-25T20:22:20.504Z,-40.00
2019-04-25T20:23:20.484Z,-40.00
2019-04-25T20:24:20.464Z,-40.00
2019-04-25T20:25:20.443Z,-40.00
2019-04-25T20:26:20.423Z,-40.00
2019-04-25T20:27:20.401Z,-40.00
2019-04-25T20:28:20.381Z,15.36
2019-04-25T20:29:20.362Z,16.97
2019-04-25T20:30:20.343Z,13.56
2019-04-25T20:31:20.322Z,-40.00
2019-04-25T20:32:20.300Z,-40.00
2019-04-25T20:33:20.286Z,-40.00
2019-04-25T20:34:20.257Z,-40.00
2019-04-25T20:35:20.235Z,-40.00
2019-04-25T20:36:20.214Z,-40.00
2019-04-25T20:37:20.192Z,-40.00
2019-04-25T20:38:20.169Z,-40.00
2019-04-25T20:39:20.149Z,-40.00
2019-04-25T20:40:20.127Z,-40.00
2019-04-25T20:41:20.198Z,-40.00
2019-04-25T20:42:20.087Z,-40.00
2019-04-25T20:43:20.065Z,-40.00
2019-04-25T20:44:20.044Z,-40.00
2019-04-25T20:45:20.022Z,-40.00
2019-04-25T20:46:20.002Z,-40.00
2019-04-25T20:47:19.981Z,-40.00
2019-04-25T20:48:19.960Z,-40.00
2019-04-25T20:49:19.938Z,-40.00
2019-04-25T20:50:19.918Z,-40.00
2019-04-25T20:51:19.899Z,-40.00
2019-04-25T20:52:19.876Z,-40.00
2019-04-25T20:53:19.855Z,-40.00
2019-04-25T20:54:19.842Z,-40.00
2019-04-25T20:55:19.813Z,-40.00
2019-04-25T20:56:19.815Z,-40.00
2019-04-25T20:57:19.771Z,-40.00
2019-04-25T20:58:19.752Z,-40.00
2019-04-25T20:59:19.730Z,-40.00
2019-04-25T21:00:19.711Z,-40.00
2019-04-25T21:01:19.688Z,-40.00
2019-04-25T21:02:19.667Z,-40.00
2019-04-25T21:03:19.645Z,-40.00
2019-04-25T21:04:19.623Z,-40.00
2019-04-25T21:05:19.602Z,-40.00
2019-04-25T21:06:19.582Z,-40.00
2019-04-25T21:07:19.561Z,13.25
2019-04-25T21:08:19.562Z,-40.00
2019-04-25T21:09:19.518Z,-40.00
